Time;durP1;ratioP1;P1;durP2;ratioP2;P2;SDS_P1;SDS_P2;PMS_P1;PMS_P2;Temp;Humidity;BMP_temperature;BMP_pressure;BME280_temperature;BME280_humidity;BME280_pressure;Samples;Min_cycle;Max_cycle;Signal;HPM_P1;HPM_P2
2023/05/29 00:01:40;;;;;;;6.57;3.77;;;;;;;12.14;100.00;96450.81;7399524;19;20432;-74
2023/05/29 00:04:07;;;;;;;4.67;3.60;;;;;;;12.08;100.00;96452.16;7398332;19;20379;-74
2023/05/29 00:06:36;;;;;;;4.17;3.77;;;;;;;11.93;100.00;96460.78;7399649;19;20964;-73
2023/05/29 00:09:03;;;;;;;4.10;3.70;;;;;;;11.39;100.00;96448.44;7398163;19;20377;-73
2023/05/29 00:11:31;;;;;;;4.17;3.23;;;;;;;11.29;100.00;96429.53;7399290;19;20376;-74
2023/05/29 00:13:58;;;;;;;5.50;3.97;;;;;;;11.41;100.00;96454.16;7397579;19;20736;-74
2023/05/29 00:16:25;;;;;;;5.20;3.93;;;;;;;11.14;100.00;96409.75;7398890;19;20376;-74
2023/05/29 00:18:53;;;;;;;5.00;4.50;;;;;;;11.44;100.00;96428.91;7398074;19;20715;-74
2023/05/29 00:21:20;;;;;;;4.43;3.80;;;;;;;11.43;100.00;96445.88;7399016;19;20387;-73
2023/05/29 00:23:47;;;;;;;5.10;4.17;;;;;;;11.64;100.00;96467.78;7397604;19;20403;-74
2023/05/29 00:26:16;;;;;;;6.57;4.93;;;;;;;11.32;100.00;96440.22;7396820;19;20470;-74
2023/05/29 00:28:50;;;;;;;6.50;4.87;;;;;;;11.62;100.00;96463.91;7398388;19;20404;-73
2023/05/29 00:31:17;;;;;;;5.73;4.63;;;;;;;11.25;100.00;96464.59;7396907;19;20371;-74
2023/05/29 00:33:44;;;;;;;7.23;3.90;;;;;;;10.91;100.00;96468.31;7398231;19;20693;-74
2023/05/29 00:36:11;;;;;;;5.17;4.17;;;;;;;10.84;100.00;96449.56;7395612;19;20361;-73
2023/05/29 00:38:38;;;;;;;4.20;3.87;;;;;;;10.69;100.00;96450.16;7397629;19;20749;-73
2023/05/29 00:41:05;;;;;;;6.00;4.10;;;;;;;10.73;100.00;96461.66;7396216;19;20337;-73
2023/05/29 00:43:32;;;;;;;4.47;4.00;;;;;;;10.59;100.00;96453.19;7396508;19;20444;-73
2023/05/29 00:46:00;;;;;;;6.27;4.13;;;;;;;10.69;100.00;96428.25;7396386;19;20855;-73
2023/05/29 00:48:27;;;;;;;4.50;4.10;;;;;;;10.71;100.00;96440.03;7399227;19;20352;-73
2023/05/29 00:50:54;;;;;;;4.60;4.20;;;;;;;10.52;100.00;96455.56;7396349;19;20415;-73
2023/05/29 00:53:23;;;;;;;4.80;4.10;;;;;;;10.18;100.00;96398.41;7395796;19;20428;-72
2023/05/29 00:55:50;;;;;;;5.43;3.93;;;;;;;10.65;100.00;96451.91;7396022;19;20372;-73
2023/05/29 00:58:18;;;;;;;3.73;3.43;;;;;;;10.83;100.00;96455.19;7397519;19;20415;-73
2023/05/29 01:00:45;;;;;;;4.90;3.97;;;;;;;10.83;100.00;96439.31;7396377;19;20380;-73
2023/05/29 01:03:17;;;;;;;6.83;5.00;;;;;;;10.59;100.00;96440.75;7396255;19;20428;-73
2023/05/29 01:05:46;;;;;;;4.63;4.20;;;;;;;10.40;100.00;96432.47;7396107;19;20919;-73
2023/05/29 01:08:13;;;;;;;7.77;5.80;;;;;;;10.47;100.00;96448.63;7397950;19;20416;-73
2023/05/29 01:10:42;;;;;;;5.40;4.40;;;;;;;10.46;100.00;96451.59;7396396;19;20384;-73
2023/05/29 01:13:27;;;;;;;8.50;4.70;;;;;;;10.59;100.00;96469.84;7396008;19;21020;-73
2023/05/29 01:16:00;;;;;;;8.90;5.40;;;;;;;10.54;100.00;96464.72;7396552;19;20467;-73
2023/05/29 01:19:08;;;;;;;5.33;4.40;;;;;;;10.18;100.00;96457.31;7396702;19;20359;-73
2023/05/29 01:22:11;;;;;;;4.23;3.70;;;;;;;10.06;100.00;96465.94;7395716;19;20739;-73
2023/05/29 01:24:52;;;;;;;5.97;3.97;;;;;;;10.15;100.00;96465.91;7394556;19;20372;-73
2023/05/29 01:27:24;;;;;;;4.53;4.10;;;;;;;9.73;100.00;96409.53;7394643;19;20912;-73
2023/05/29 01:29:54;;;;;;;5.20;4.10;;;;;;;9.96;100.00;96452.31;7395704;19;20459;-73
2023/05/29 01:32:24;;;;;;;5.60;4.27;;;;;;;9.58;100.00;96447.03;7396172;19;20451;-72
2023/05/29 01:34:51;;;;;;;6.23;4.10;;;;;;;9.33;100.00;96459.97;7396587;19;20369;-72
2023/05/29 01:37:18;;;;;;;4.63;4.10;;;;;;;8.72;100.00;96424.25;7395431;19;20395;-72
2023/05/29 01:39:46;;;;;;;5.40;4.00;;;;;;;8.68;100.00;96457.56;7395233;19;20436;-73
2023/05/29 01:42:13;;;;;;;5.77;4.77;;;;;;;9.16;100.00;96436.28;7395769;19;20439;-72
2023/05/29 01:44:41;;;;;;;6.97;3.80;;;;;;;9.43;100.00;96456.25;7394964;19;20718;-73
2023/05/29 01:47:08;;;;;;;6.80;4.43;;;;;;;8.78;100.00;96394.00;7396246;19;20383;-73
2023/05/29 01:49:37;;;;;;;3.90;3.60;;;;;;;9.24;100.00;96435.50;7394701;19;20364;-73
2023/05/29 01:52:04;;;;;;;5.67;4.03;;;;;;;9.33;100.00;96441.50;7395964;19;20769;-73
2023/05/29 01:54:32;;;;;;;10.53;4.50;;;;;;;9.48;100.00;96461.34;7395423;19;20341;-73
2023/05/29 01:57:00;;;;;;;4.77;4.17;;;;;;;9.44;100.00;96429.53;7395694;19;20396;-73
2023/05/29 01:59:28;;;;;;;8.77;4.90;;;;;;;9.58;100.00;96447.81;7395055;19;20381;-73
2023/05/29 02:01:55;;;;;;;5.10;4.60;;;;;;;9.54;100.00;96446.88;7392496;19;20476;-73
2023/05/29 02:04:22;;;;;;;5.10;3.90;;;;;;;9.31;100.00;96446.34;7396307;19;20377;-73
2023/05/29 02:06:49;;;;;;;7.00;4.80;;;;;;;9.27;100.00;96421.69;7393427;19;20380;-73
2023/05/29 02:09:17;;;;;;;7.37;5.23;;;;;;;9.44;100.00;96449.88;7394800;19;20348;-73
2023/05/29 02:11:45;;;;;;;5.30;4.80;;;;;;;8.96;100.00;96445.63;7393164;19;20381;-73
2023/05/29 02:14:12;;;;;;;5.73;3.70;;;;;;;9.00;100.00;96425.47;7394900;19;20372;-73
2023/05/29 02:16:40;;;;;;;6.03;4.40;;;;;;;8.88;100.00;96420.03;7392668;19;20387;-73
2023/05/29 02:19:08;;;;;;;6.63;4.40;;;;;;;9.00;100.00;96424.69;7394869;19;20396;-73
2023/05/29 02:21:38;;;;;;;7.47;4.23;;;;;;;8.53;100.00;96421.91;7394327;19;20400;-73
2023/05/29 02:24:05;;;;;;;6.20;3.83;;;;;;;8.53;100.00;96396.34;7394858;19;20880;-73
2023/05/29 02:26:33;;;;;;;9.73;4.97;;;;;;;8.66;100.00;96370.91;7394707;19;20371;-73
2023/05/29 02:29:00;;;;;;;5.30;3.70;;;;;;;9.07;100.00;96424.97;7396182;19;20403;-73
2023/05/29 02:31:27;;;;;;;10.83;4.63;;;;;;;8.96;100.00;96431.69;7393368;19;20435;-73
2023/05/29 02:33:54;;;;;;;4.63;3.77;;;;;;;9.11;100.00;96428.53;7428994;19;20436;-72
2023/05/29 02:36:21;;;;;;;5.93;4.03;;;;;;;9.00;100.00;96425.47;7427632;19;20398;-72
2023/05/29 02:38:49;;;;;;;8.43;4.83;;;;;;;8.87;100.00;96408.72;7429001;19;20389;-72
2023/05/29 02:41:16;;;;;;;5.83;4.30;;;;;;;9.00;100.00;96408.88;7401779;19;20961;-73
2023/05/29 02:43:43;;;;;;;5.93;4.30;;;;;;;8.53;100.00;96406.09;7404769;19;20341;-73
2023/05/29 02:46:10;;;;;;;6.70;4.17;;;;;;;8.98;100.00;96418.94;7400648;19;20391;-72
2023/05/29 02:48:37;;;;;;;4.67;4.27;;;;;;;8.86;100.00;96425.63;7401851;19;20379;-73
2023/05/29 02:51:04;;;;;;;5.13;4.40;;;;;;;8.71;100.00;96420.84;7400156;19;20485;-73
2023/05/29 02:53:31;;;;;;;6.70;5.03;;;;;;;8.83;100.00;96415.72;7399268;19;20377;-73
2023/05/29 02:55:58;;;;;;;5.00;3.33;;;;;;;8.76;100.00;96418.03;7399999;19;20412;-72
2023/05/29 02:58:25;;;;;;;4.73;3.90;;;;;;;8.58;100.00;96414.66;7399251;19;20395;-73
2023/05/29 03:00:52;;;;;;;6.03;4.60;;;;;;;8.19;100.00;96362.06;7400020;19;20384;-73
2023/05/29 03:03:19;;;;;;;5.03;4.53;;;;;;;8.35;100.00;96392.16;7399607;19;20448;-73
2023/05/29 03:05:47;;;;;;;5.47;4.60;;;;;;;8.67;100.00;96419.13;7400273;19;20389;-72
2023/05/29 03:08:14;;;;;;;5.03;4.50;;;;;;;8.65;100.00;96422.06;7401294;19;20355;-72
2023/05/29 03:10:43;;;;;;;6.10;5.30;;;;;;;8.65;100.00;96427.34;7399782;19;20388;-72
2023/05/29 03:13:10;;;;;;;5.10;4.60;;;;;;;8.52;100.00;96400.06;7400673;19;20428;-72
2023/05/29 03:15:43;;;;;;;4.60;3.80;;;;;;;8.44;100.00;96394.81;7400111;19;20991;-72
2023/05/29 03:18:11;;;;;;;5.07;4.30;;;;;;;8.23;100.00;96405.13;7396384;19;20417;-72
2023/05/29 03:20:38;;;;;;;5.20;4.70;;;;;;;8.01;100.00;96416.56;7400554;19;20387;-72
2023/05/29 03:23:06;;;;;;;5.30;4.77;;;;;;;8.24;100.00;96412.72;7396451;19;20852;-72
2023/05/29 03:25:34;;;;;;;4.23;3.83;;;;;;;8.14;100.00;96413.03;7399870;19;20405;-72
2023/05/29 03:28:01;;;;;;;8.97;4.27;;;;;;;8.30;100.00;96414.16;7398794;19;20732;-72
2023/05/29 03:30:28;;;;;;;6.97;4.03;;;;;;;8.54;100.00;96418.97;7400083;19;20383;-72
2023/05/29 03:32:55;;;;;;;4.50;4.10;;;;;;;8.20;100.00;96390.72;7396748;19;20432;-72
2023/05/29 03:35:36;;;;;;;4.63;3.60;;;;;;;8.25;100.00;96403.75;7400179;19;20376;-72
2023/05/29 03:38:03;;;;;;;4.27;3.87;;;;;;;8.21;100.00;96391.50;7396683;19;20415;-73
2023/05/29 03:40:30;;;;;;;7.70;5.07;;;;;;;8.20;100.00;96419.72;7400374;19;20433;-72
2023/05/29 03:42:57;;;;;;;6.37;5.00;;;;;;;8.37;100.00;96418.19;7397390;19;20442;-72
2023/05/29 03:45:24;;;;;;;5.80;4.67;;;;;;;8.27;100.00;96425.28;7399979;19;21057;-73
2023/05/29 03:47:51;;;;;;;4.93;3.67;;;;;;;8.33;100.00;96423.28;7398384;19;20900;-73
2023/05/29 03:50:18;;;;;;;6.40;4.53;;;;;;;7.84;100.00;96404.13;7398545;19;20381;-73
2023/05/29 03:52:45;;;;;;;7.10;5.20;;;;;;;7.89;100.00;96429.56;7398641;19;20960;-73
2023/05/29 03:55:14;;;;;;;4.43;3.90;;;;;;;7.83;100.00;96428.13;7400312;19;20373;-73
2023/05/29 03:57:42;;;;;;;6.83;5.30;;;;;;;7.92;100.00;96419.19;7397410;19;20392;-74
2023/05/29 04:00:11;;;;;;;4.40;4.07;;;;;;;8.27;100.00;96433.19;7400056;19;20404;-73
2023/05/29 04:02:41;;;;;;;8.00;4.53;;;;;;;8.39;100.00;96434.47;7399006;19;20758;-73
2023/05/29 04:05:12;;;;;;;4.73;4.33;;;;;;;8.24;100.00;96409.31;7399856;19;20357;-73
2023/05/29 04:07:41;;;;;;;5.43;4.10;;;;;;;8.07;100.00;96414.56;7398441;19;20379;-73
2023/05/29 04:10:09;;;;;;;4.33;3.80;;;;;;;8.03;100.00;96439.97;7396776;19;20764;-73
2023/05/29 04:12:36;;;;;;;7.23;4.60;;;;;;;8.28;100.00;96431.34;7397485;19;20420;-73
2023/05/29 04:15:03;;;;;;;4.40;4.00;;;;;;;8.54;100.00;96447.97;7397397;19;20380;-73
2023/05/29 04:17:30;;;;;;;7.10;4.87;;;;;;;8.57;100.00;96449.22;7397116;19;20365;-73
2023/05/29 04:19:58;;;;;;;4.93;4.53;;;;;;;8.64;100.00;96440.84;7397208;19;20399;-73
2023/05/29 04:22:25;;;;;;;5.77;5.10;;;;;;;8.03;100.00;96427.59;7397524;19;20567;-73
2023/05/29 04:24:52;;;;;;;6.03;5.00;;;;;;;8.72;100.00;96459.28;7396763;19;20380;-72
2023/05/29 04:27:19;;;;;;;6.43;5.20;;;;;;;9.17;100.00;96451.78;7398164;19;20391;-72
2023/05/29 04:29:46;;;;;;;7.10;4.87;;;;;;;9.03;100.00;96460.97;7396690;19;20380;-72
2023/05/29 04:32:13;;;;;;;9.30;5.83;;;;;;;9.05;100.00;96474.63;7398914;19;20410;-72
2023/05/29 04:34:40;;;;;;;6.77;5.90;;;;;;;9.14;100.00;96465.63;7396780;19;20940;-72
2023/05/29 04:37:07;;;;;;;6.90;5.67;;;;;;;9.21;100.00;96475.69;7398638;19;20355;-72
2023/05/29 04:39:34;;;;;;;6.07;4.73;;;;;;;9.18;100.00;96465.75;7397033;19;20373;-72
2023/05/29 04:42:01;;;;;;;5.77;5.20;;;;;;;9.02;100.00;96457.56;7396849;19;21003;-72
2023/05/29 04:44:29;;;;;;;6.17;5.10;;;;;;;9.08;100.00;96489.81;7396095;19;20402;-73
2023/05/29 04:46:58;;;;;;;8.80;5.20;;;;;;;9.11;100.00;96483.94;7397374;19;20719;-73
2023/05/29 04:49:25;;;;;;;7.43;5.13;;;;;;;9.14;100.00;96449.78;7396866;19;20737;-73
2023/05/29 04:51:53;;;;;;;5.03;4.60;;;;;;;9.55;100.00;96489.91;7397603;19;20416;-73
2023/05/29 04:54:22;;;;;;;6.63;4.80;;;;;;;9.81;100.00;96477.38;7396912;19;20752;-73
2023/05/29 04:56:52;;;;;;;13.60;4.67;;;;;;;9.91;100.00;96484.19;7397174;19;20400;-73
2023/05/29 04:59:23;;;;;;;5.00;4.60;;;;;;;10.04;100.00;96478.69;7396773;19;20441;-73
2023/05/29 05:01:49;;;;;;;6.83;4.70;;;;;;;10.32;100.00;96481.66;7395215;19;20404;-73
2023/05/29 05:04:17;;;;;;;7.50;5.40;;;;;;;10.51;100.00;96477.81;7396541;19;20380;-73
2023/05/29 05:06:45;;;;;;;9.00;4.90;;;;;;;10.62;100.00;96506.19;7398066;19;20455;-73
2023/05/29 05:09:12;;;;;;;11.40;4.57;;;;;;;10.86;100.00;96518.03;7396000;19;20428;-73
2023/05/29 05:11:40;;;;;;;7.10;5.70;;;;;;;10.61;100.00;96509.94;7394354;19;20444;-73
2023/05/29 05:14:07;;;;;;;6.30;5.70;;;;;;;10.47;100.00;96485.63;7396372;19;20412;-74
2023/05/29 05:16:34;;;;;;;7.97;5.30;;;;;;;10.66;100.00;96490.47;7394200;19;20400;-74
2023/05/29 05:19:02;;;;;;;5.70;4.83;;;;;;;11.13;100.00;96503.50;7394246;19;20960;-73
2023/05/29 05:21:32;;;;;;;7.83;5.17;;;;;;;11.02;100.00;96466.06;7396195;19;20376;-73
2023/05/29 05:24:01;;;;;;;5.27;4.60;;;;;;;10.97;100.00;96502.53;7396258;19;20380;-72
2023/05/29 05:26:28;;;;;;;6.20;4.60;;;;;;;11.23;100.00;96506.50;7398674;19;20412;-70
2023/05/29 05:28:55;;;;;;;5.50;4.83;;;;;;;11.28;100.00;96510.03;7426711;19;20365;-71
2023/05/29 05:31:26;;;;;;;4.93;4.53;;;;;;;11.50;100.00;96485.84;7420482;19;20452;-71
2023/05/29 05:33:53;;;;;;;7.23;5.23;;;;;;;11.90;100.00;96514.44;7412574;19;20728;-71
2023/05/29 05:36:20;;;;;;;5.50;5.00;;;;;;;11.93;100.00;96503.94;7394805;19;20404;-72
2023/05/29 05:38:52;;;;;;;5.77;5.20;;;;;;;12.13;100.00;96505.69;7394810;19;20379;-71
2023/05/29 05:41:21;;;;;;;10.07;4.73;;;;;;;12.07;100.00;96499.09;7394589;19;20373;-72
2023/05/29 05:43:50;;;;;;;5.47;4.20;;;;;;;12.27;100.00;96508.00;7396438;19;20379;-72
2023/05/29 05:46:28;;;;;;;5.40;4.90;;;;;;;12.24;100.00;96505.25;7395124;19;20379;-72
2023/05/29 05:48:57;;;;;;;5.37;4.57;;;;;;;12.29;100.00;96499.75;7396619;19;20412;-72
2023/05/29 05:51:24;;;;;;;7.03;4.67;;;;;;;12.54;100.00;96521.69;7394484;19;20908;-72
2023/05/29 05:53:51;;;;;;;6.77;4.00;;;;;;;12.72;100.00;96526.44;7393581;19;20377;-72
2023/05/29 05:56:19;;;;;;;4.60;4.20;;;;;;;13.14;100.00;96534.06;7395009;19;20456;-72
2023/05/29 05:58:46;;;;;;;5.93;5.33;;;;;;;13.24;100.00;96496.47;7391743;19;20409;-72
2023/05/29 06:01:14;;;;;;;4.90;4.27;;;;;;;13.39;100.00;96512.75;7395091;19;20437;-71
2023/05/29 06:03:42;;;;;;;7.53;4.40;;;;;;;13.94;100.00;96509.22;7391448;19;20440;-73
2023/05/29 06:06:09;;;;;;;5.90;4.53;;;;;;;14.35;100.00;96513.25;7394873;19;20697;-73
2023/05/29 06:08:41;;;;;;;7.33;4.23;;;;;;;14.51;100.00;96536.41;7393182;19;20408;-73
2023/05/29 06:11:08;;;;;;;4.73;4.30;;;;;;;14.96;100.00;96519.91;7395187;19;20416;-73
2023/05/29 06:13:37;;;;;;;4.77;4.43;;;;;;;14.98;100.00;96531.75;7396590;19;20440;-73
2023/05/29 06:16:09;;;;;;;5.20;4.37;;;;;;;14.92;100.00;96543.00;7403066;19;20409;-73
2023/05/29 06:18:36;;;;;;;5.17;4.63;;;;;;;14.64;100.00;96527.97;7399416;19;20436;-73
2023/05/29 06:21:04;;;;;;;4.53;4.13;;;;;;;15.06;100.00;96553.97;7402396;19;20376;-73
2023/05/29 06:23:33;;;;;;;5.13;4.27;;;;;;;15.41;100.00;96542.47;7398175;19;20961;-73
2023/05/29 06:26:00;;;;;;;8.90;3.70;;;;;;;15.52;100.00;96522.91;7402597;19;20383;-73
2023/05/29 06:28:27;;;;;;;5.27;4.00;;;;;;;15.72;100.00;96547.66;7401036;19;20802;-73
2023/05/29 06:30:55;;;;;;;5.70;4.20;;;;;;;16.35;99.62;96554.44;7402689;19;20412;-73
2023/05/29 06:33:24;;;;;;;4.17;3.77;;;;;;;16.33;94.36;96554.78;7399258;19;20445;-73
2023/05/29 06:35:51;;;;;;;6.70;4.50;;;;;;;16.78;94.42;96550.50;7402561;19;20392;-73
2023/05/29 06:38:18;;;;;;;5.90;4.93;;;;;;;16.33;90.48;96546.78;7399332;19;20369;-73
2023/05/29 06:40:44;;;;;;;5.37;4.03;;;;;;;16.81;90.81;96539.88;7402423;19;20738;-73
2023/05/29 06:43:11;;;;;;;5.07;4.30;;;;;;;16.83;89.97;96540.31;7398740;19;20435;-73
2023/05/29 06:45:45;;;;;;;4.77;3.53;;;;;;;17.27;88.56;96561.09;7399777;19;20373;-73
2023/05/29 06:48:11;;;;;;;10.60;4.70;;;;;;;17.00;87.63;96541.66;7401076;19;20421;-73
2023/05/29 06:50:39;;;;;;;4.77;4.30;;;;;;;17.08;89.96;96550.53;7399275;19;20384;-73
2023/05/29 06:53:36;;;;;;;3.60;3.30;;;;;;;17.36;86.81;96553.56;7397285;19;20418;-73
2023/05/29 06:56:05;;;;;;;6.80;4.67;;;;;;;17.95;87.84;96569.88;7400054;19;20383;-73
2023/05/29 06:58:33;;;;;;;3.93;3.40;;;;;;;17.64;84.89;96539.75;7400416;19;20385;-73
2023/05/29 07:01:00;;;;;;;6.43;4.13;;;;;;;18.06;84.57;96543.22;7400172;19;20913;-73
2023/05/29 07:03:33;;;;;;;4.20;3.80;;;;;;;18.16;78.78;96553.22;7399437;19;20783;-73
2023/05/29 07:06:03;;;;;;;3.40;3.10;;;;;;;18.49;70.70;96565.75;7400142;19;20370;-74
2023/05/29 07:08:31;;;;;;;6.40;3.30;;;;;;;18.65;65.15;96565.50;7398702;19;20395;-73
2023/05/29 07:10:58;;;;;;;3.07;2.83;;;;;;;18.61;61.60;96566.22;7400301;19;20954;-74
2023/05/29 07:13:26;;;;;;;4.07;3.67;;;;;;;18.64;61.92;96580.81;7396822;19;20438;-74
2023/05/29 07:15:54;;;;;;;5.50;3.83;;;;;;;18.95;60.45;96582.16;7401876;19;20395;-74
2023/05/29 07:18:28;;;;;;;3.50;3.20;;;;;;;18.64;59.67;96566.63;7397731;19;20473;-74
2023/05/29 07:20:56;;;;;;;5.40;3.30;;;;;;;18.97;60.11;96550.41;7400665;19;20388;-74
2023/05/29 07:23:27;;;;;;;5.30;3.27;;;;;;;19.35;58.68;96580.44;7395701;19;20433;-74
2023/05/29 07:25:55;;;;;;;3.40;2.97;;;;;;;19.13;59.05;96550.84;7399921;19;20389;-74
2023/05/29 07:28:23;;;;;;;3.07;2.77;;;;;;;18.76;55.62;96560.97;7399151;19;20957;-74
2023/05/29 07:30:51;;;;;;;5.00;4.47;;;;;;;18.79;56.10;96581.66;7400837;19;20439;-74
2023/05/29 07:33:18;;;;;;;3.20;2.90;;;;;;;18.78;56.00;96564.06;7397246;19;20430;-74
2023/05/29 07:35:45;;;;;;;3.97;3.57;;;;;;;18.33;54.74;96539.25;7400831;19;20374;-74
2023/05/29 07:38:13;;;;;;;3.33;3.03;;;;;;;18.61;54.72;96576.16;7398878;19;20374;-74
2023/05/29 07:40:41;;;;;;;5.40;3.80;;;;;;;18.69;55.35;96593.84;7400756;19;20365;-74
2023/05/29 07:43:20;;;;;;;4.10;3.70;;;;;;;18.57;54.54;96551.28;7397585;19;20425;-74
2023/05/29 07:45:53;;;;;;;7.90;3.40;;;;;;;19.31;54.05;96587.69;7397645;19;20905;-74
2023/05/29 07:48:21;;;;;;;4.00;2.93;;;;;;;19.42;53.60;96583.91;7399577;19;20879;-74
2023/05/29 07:50:51;;;;;;;3.57;3.27;;;;;;;19.74;54.15;96594.00;7398260;19;20366;-74
2023/05/29 07:53:19;;;;;;;4.30;3.90;;;;;;;19.73;53.40;96601.28;7397824;19;20439;-74
2023/05/29 07:55:47;;;;;;;6.93;3.03;;;;;;;19.66;51.29;96603.22;7398144;19;20396;-74
2023/05/29 07:58:16;;;;;;;5.73;2.97;;;;;;;19.43;51.82;96603.47;7398900;19;20379;-74
2023/05/29 08:00:44;;;;;;;3.93;3.53;;;;;;;19.42;50.96;96608.06;7397611;19;20442;-74
2023/05/29 08:03:12;;;;;;;3.57;3.27;;;;;;;19.27;51.77;96573.50;7397614;19;20771;-74
2023/05/29 08:05:58;;;;;;;2.90;2.63;;;;;;;19.68;52.29;96601.69;7400394;19;20451;-73
2023/05/29 08:08:27;;;;;;;4.47;3.07;;;;;;;20.06;51.98;96591.41;7400322;19;20474;-74
2023/05/29 08:10:54;;;;;;;4.13;2.70;;;;;;;19.98;50.71;96608.66;7398219;19;20743;-74
2023/05/29 08:13:21;;;;;;;2.70;2.50;;;;;;;19.97;51.83;96621.31;7394909;19;20953;-73
2023/05/29 08:15:48;;;;;;;5.93;3.37;;;;;;;20.32;51.37;96587.63;7397930;19;20723;-74
2023/05/29 08:18:15;;;;;;;3.43;3.13;;;;;;;20.06;52.19;96599.47;7395978;19;20957;-74
2023/05/29 08:20:42;;;;;;;4.00;3.00;;;;;;;20.15;50.58;96612.50;7399929;19;20867;-74
2023/05/29 08:23:10;;;;;;;3.83;3.27;;;;;;;20.22;50.95;96580.31;7397473;19;20420;-74
2023/05/29 08:25:36;;;;;;;3.10;2.80;;;;;;;20.71;51.34;96609.13;7399694;19;20923;-74
2023/05/29 08:28:03;;;;;;;3.80;2.83;;;;;;;20.73;50.85;96609.53;7397390;19;20364;-74
2023/05/29 08:30:30;;;;;;;5.70;3.77;;;;;;;20.91;50.33;96604.13;7396630;19;21315;-74
2023/05/29 08:32:57;;;;;;;2.87;2.60;;;;;;;20.60;51.87;96614.50;7395556;19;20811;-74
2023/05/29 08:35:24;;;;;;;3.13;2.83;;;;;;;20.31;51.45;96586.09;7397915;19;20370;-74
2023/05/29 08:37:51;;;;;;;3.27;2.97;;;;;;;20.57;50.70;96588.41;7397049;19;20382;-74
2023/05/29 08:40:21;;;;;;;4.23;3.83;;;;;;;21.26;49.75;96591.78;7396289;19;20379;-74
2023/05/29 08:43:12;;;;;;;4.80;3.37;;;;;;;21.60;50.71;96602.78;7395248;19;21564;-74
2023/05/29 08:45:43;;;;;;;3.57;3.07;;;;;;;20.87;49.93;96579.16;7398778;19;20367;-74
2023/05/29 08:48:11;;;;;;;3.87;3.33;;;;;;;21.10;49.70;96595.63;7397543;19;20427;-73
2023/05/29 08:50:45;;;;;;;4.20;3.13;;;;;;;21.10;51.25;96592.94;7395828;19;20911;-74
2023/05/29 08:53:16;;;;;;;7.10;3.30;;;;;;;21.69;50.10;96595.84;7396004;19;20974;-74
2023/05/29 08:55:43;;;;;;;4.77;3.53;;;;;;;21.88;50.54;96581.09;7397505;19;20359;-75
2023/05/29 08:58:11;;;;;;;3.97;3.50;;;;;;;21.03;49.21;96598.34;7396891;19;20736;-74
2023/05/29 09:00:38;;;;;;;5.77;3.90;;;;;;;20.76;50.29;96583.78;7395885;19;20375;-74
2023/05/29 09:03:05;;;;;;;3.07;2.83;;;;;;;21.13;50.65;96578.72;7395655;19;20405;-74
2023/05/29 09:05:33;;;;;;;3.50;3.00;;;;;;;21.45;49.89;96594.00;7395651;19;20348;-75
2023/05/29 09:08:00;;;;;;;3.23;2.93;;;;;;;21.84;50.09;96583.06;7397405;19;20415;-75
2023/05/29 09:10:27;;;;;;;2.87;2.57;;;;;;;21.30;50.15;96587.91;7396199;19;20366;-74
2023/05/29 09:12:54;;;;;;;4.90;3.40;;;;;;;21.76;49.89;96576.16;7395739;19;21001;-75
2023/05/29 09:15:22;;;;;;;2.90;2.70;;;;;;;21.71;48.91;96579.28;7396992;19;20342;-75
2023/05/29 09:17:54;;;;;;;3.67;3.37;;;;;;;21.62;49.06;96603.94;7395435;19;20400;-75
2023/05/29 09:20:24;;;;;;;3.50;2.87;;;;;;;21.39;48.47;96580.22;7393794;19;20930;-75
2023/05/29 09:22:56;;;;;;;2.97;2.70;;;;;;;21.94;49.39;96587.63;7396433;19;20448;-75
2023/05/29 09:25:26;;;;;;;3.93;3.60;;;;;;;22.12;49.39;96603.69;7396137;19;20413;-75
2023/05/29 09:28:02;;;;;;;3.77;3.30;;;;;;;21.49;47.62;96570.53;7396518;19;20377;-74
2023/05/29 09:30:46;;;;;;;3.83;3.43;;;;;;;21.43;48.20;96585.56;7397477;19;20395;-75
2023/05/29 09:33:15;;;;;;;3.93;3.40;;;;;;;21.99;48.18;96583.75;7393689;19;21031;-74
2023/05/29 09:35:44;;;;;;;4.13;3.70;;;;;;;22.27;48.92;96594.34;7398130;19;20375;-75
2023/05/29 09:38:15;;;;;;;5.50;4.37;;;;;;;22.14;47.50;96585.22;7395056;19;20384;-74
2023/05/29 09:40:58;;;;;;;3.17;2.90;;;;;;;22.15;47.31;96592.13;7394147;19;20419;-74
2023/05/29 09:43:25;;;;;;;4.23;3.23;;;;;;;22.01;47.13;96570.66;7395581;19;20412;-74
2023/05/29 09:45:52;;;;;;;5.13;2.90;;;;;;;21.92;46.29;96606.09;7393909;19;20379;-74
2023/05/29 09:48:25;;;;;;;6.17;4.90;;;;;;;22.12;46.86;96595.63;7393738;19;20435;-74
2023/05/29 09:50:53;;;;;;;16.53;13.63;;;;;;;21.98;46.48;96582.22;7394125;19;20403;-74
2023/05/29 09:53:24;;;;;;;3.77;3.00;;;;;;;22.11;46.74;96594.09;7393905;19;21004;-74
2023/05/29 09:55:54;;;;;;;26.27;15.53;;;;;;;22.24;47.17;96589.75;7394542;19;20404;-74
2023/05/29 09:58:25;;;;;;;17.70;11.10;;;;;;;22.08;47.13;96581.41;7395527;19;20746;-74
2023/05/29 10:00:53;;;;;;;18.93;13.63;;;;;;;22.52;46.50;96588.00;7394470;19;20408;-75
2023/05/29 10:03:21;;;;;;;4.90;4.40;;;;;;;22.89;46.16;96606.97;7394296;19;20461;-74
2023/05/29 10:05:56;;;;;;;3.80;3.17;;;;;;;22.81;46.75;96583.91;7395916;19;20388;-75
2023/05/29 10:08:36;;;;;;;4.57;3.00;;;;;;;22.18;46.36;96560.97;7393428;19;20764;-75
2023/05/29 10:11:09;;;;;;;5.90;4.33;;;;;;;22.78;47.08;96600.88;7396489;19;20384;-74
2023/05/29 10:13:45;;;;;;;3.87;3.37;;;;;;;22.60;46.12;96592.19;7391709;19;20420;-75
2023/05/29 10:16:12;;;;;;;4.17;3.87;;;;;;;22.59;45.16;96574.50;7396311;19;20382;-75
2023/05/29 10:18:49;;;;;;;4.17;3.17;;;;;;;22.88;45.43;96591.97;7393299;19;20898;-75
2023/05/29 10:21:17;;;;;;;3.23;2.93;;;;;;;23.19;46.63;96584.69;7396090;19;20390;-75
2023/05/29 10:23:50;;;;;;;4.00;3.60;;;;;;;23.37;46.20;96589.91;7392327;19;20437;-74
2023/05/29 10:26:29;;;;;;;3.37;2.80;;;;;;;23.36;46.02;96596.47;7397797;19;20351;-75
2023/05/29 10:29:28;;;;;;;4.60;3.30;;;;;;;22.46;45.38;96595.78;7394842;19;20909;-74
2023/05/29 10:32:01;;;;;;;4.57;2.93;;;;;;;23.13;45.90;96590.94;7393121;19;20445;-75
2023/05/29 10:35:07;;;;;;;2.77;2.57;;;;;;;23.36;45.71;96593.00;7394622;19;20357;-75
2023/05/29 10:37:41;;;;;;;3.73;3.30;;;;;;;23.09;44.79;96582.09;7393853;19;20435;-75
2023/05/29 10:40:12;;;;;;;3.50;3.20;;;;;;;23.23;44.61;96598.16;7392020;19;20974;-74
2023/05/29 10:42:53;;;;;;;8.30;3.33;;;;;;;23.82;44.69;96595.16;7392679;19;20488;-75
2023/05/29 10:45:29;;;;;;;3.30;3.00;;;;;;;23.89;42.82;96592.34;7395448;19;20381;-75
2023/05/29 10:48:16;;;;;;;5.33;2.80;;;;;;;22.95;44.46;96589.19;7393343;19;20735;-75
2023/05/29 10:50:45;;;;;;;4.80;2.90;;;;;;;22.59;44.51;96587.97;7392986;19;20366;-75
2023/05/29 10:53:18;;;;;;;8.10;3.30;;;;;;;23.18;44.87;96572.38;7392216;19;20928;-75
2023/05/29 10:55:45;;;;;;;2.90;2.70;;;;;;;23.27;45.34;96571.91;7392615;19;20394;-75
2023/05/29 10:58:24;;;;;;;2.67;2.47;;;;;;;23.54;44.05;96561.94;7394903;19;20375;-75
2023/05/29 11:00:57;;;;;;;2.70;2.33;;;;;;;22.69;44.42;96558.19;7397709;19;20385;-75
2023/05/29 11:03:34;;;;;;;3.03;2.73;;;;;;;23.15;44.01;96535.41;7431690;19;20438;-72
2023/05/29 11:06:04;;;;;;;3.37;2.93;;;;;;;23.81;42.75;96582.84;7434463;19;20380;-74
2023/05/29 11:08:56;;;;;;;5.10;3.10;;;;;;;23.52;42.89;96571.63;7427758;19;20434;-75
2023/05/29 11:11:26;;;;;;;3.20;3.00;;;;;;;24.38;43.13;96582.78;7397635;19;20385;-75
2023/05/29 11:13:55;;;;;;;5.23;3.47;;;;;;;23.64;43.08;96565.72;7400148;19;20747;-74
2023/05/29 11:16:25;;;;;;;3.83;2.30;;;;;;;23.86;43.65;96582.38;7402427;19;20385;-75
2023/05/29 11:18:53;;;;;;;4.77;3.80;;;;;;;23.72;43.47;96561.72;7399983;19;20386;-75
2023/05/29 11:21:49;;;;;;;3.50;3.10;;;;;;;24.34;42.82;96589.44;7401437;19;20373;-75
2023/05/29 11:24:24;;;;;;;3.17;2.87;;;;;;;23.97;42.84;96585.69;7400913;19;20352;-75
2023/05/29 11:26:53;;;;;;;3.50;2.97;;;;;;;24.38;42.64;96579.31;7398914;19;20463;-74
2023/05/29 11:29:24;;;;;;;6.93;2.77;;;;;;;24.54;41.65;96587.56;7400090;19;20410;-74
2023/05/29 11:32:14;;;;;;;3.70;2.57;;;;;;;24.27;41.34;96584.88;7397939;19;20443;-74
2023/05/29 11:34:44;;;;;;;6.60;3.07;;;;;;;24.48;41.48;96586.50;7398063;19;20353;-75
2023/05/29 11:37:11;;;;;;;3.17;2.63;;;;;;;25.04;41.27;96589.44;7399531;19;20450;-75
2023/05/29 11:39:39;;;;;;;4.10;3.10;;;;;;;24.97;41.05;96581.41;7397209;19;20420;-75
2023/05/29 11:42:06;;;;;;;3.50;3.20;;;;;;;25.07;41.81;96579.72;7400454;19;20441;-75
2023/05/29 11:44:33;;;;;;;2.93;2.63;;;;;;;25.64;41.60;96579.34;7398577;19;20354;-75